sensor_id;sensor_type;location;lat;lon;timestamp;pressure;altitude;pressure_sealevel;temperature;humidity
39265;BME280;42646;51.910;7.724;2024-01-07T00:00:25;101010.88;;;1.94;100.00
39265;BME280;42646;51.910;7.724;2024-01-07T00:02:52;101018.91;;;1.91;100.00
39265;BME280;42646;51.910;7.724;2024-01-07T00:05:21;101019.75;;;1.91;100.00
39265;BME280;42646;51.910;7.724;2024-01-07T00:07:49;101023.44;;;1.87;100.00
39265;BME280;42646;51.910;7.724;2024-01-07T00:10:17;101025.22;;;1.86;100.00
39265;BME280;42646;51.910;7.724;2024-01-07T00:12:45;101026.22;;;1.84;100.00
39265;BME280;42646;51.910;7.724;2024-01-07T00:15:12;101028.75;;;1.85;100.00
39265;BME280;42646;51.910;7.724;2024-01-07T00:17:40;101024.56;;;1.81;100.00
39265;BME280;42646;51.910;7.724;2024-01-07T00:20:08;101035.16;;;1.80;100.00
39265;BME280;42646;51.910;7.724;2024-01-07T00:22:38;101031.69;;;1.79;100.00
39265;BME280;42646;51.910;7.724;2024-01-07T00:25:06;101029.09;;;1.78;100.00
39265;BME280;42646;51.910;7.724;2024-01-07T00:27:34;101041.38;;;1.77;100.00
39265;BME280;42646;51.910;7.724;2024-01-07T00:30:03;101038.84;;;1.76;100.00
39265;BME280;42646;51.910;7.724;2024-01-07T00:32:31;101039.84;;;1.73;100.00
39265;BME280;42646;51.910;7.724;2024-01-07T00:34:58;101042.47;;;1.73;100.00
39265;BME280;42646;51.910;7.724;2024-01-07T00:37:27;101042.69;;;1.69;100.00
39265;BME280;42646;51.910;7.724;2024-01-07T00:39:56;101048.94;;;1.66;100.00
39265;BME280;42646;51.910;7.724;2024-01-07T00:42:23;101047.00;;;1.70;100.00
39265;BME280;42646;51.910;7.724;2024-01-07T00:44:51;101046.34;;;1.65;100.00
39265;BME280;42646;51.910;7.724;2024-01-07T00:47:19;101046.44;;;1.63;100.00
39265;BME280;42646;51.910;7.724;2024-01-07T00:49:46;101054.38;;;1.62;100.00
39265;BME280;42646;51.910;7.724;2024-01-07T00:52:14;101054.38;;;1.62;100.00
39265;BME280;42646;51.910;7.724;2024-01-07T00:54:42;101060.47;;;1.62;100.00
39265;BME280;42646;51.910;7.724;2024-01-07T00:57:11;101061.41;;;1.61;100.00
39265;BME280;42646;51.910;7.724;2024-01-07T00:59:40;101063.09;;;1.62;100.00
39265;BME280;42646;51.910;7.724;2024-01-07T01:02:07;101059.63;;;1.62;100.00
39265;BME280;42646;51.910;7.724;2024-01-07T01:04:38;101064.91;;;1.60;100.00
39265;BME280;42646;51.910;7.724;2024-01-07T01:07:06;101068.63;;;1.56;100.00
39265;BME280;42646;51.910;7.724;2024-01-07T01:09:34;101074.72;;;1.56;100.00
39265;BME280;42646;51.910;7.724;2024-01-07T01:12:02;101078.25;;;1.55;100.00
39265;BME280;42646;51.910;7.724;2024-01-07T01:14:31;101081.72;;;1.56;100.00
39265;BME280;42646;51.910;7.724;2024-01-07T01:16:59;101081.09;;;1.51;100.00
39265;BME280;42646;51.910;7.724;2024-01-07T01:19:26;101077.63;;;1.50;100.00
39265;BME280;42646;51.910;7.724;2024-01-07T01:21:54;101084.72;;;1.48;100.00
39265;BME280;42646;51.910;7.724;2024-01-07T01:24:22;101084.75;;;1.47;100.00
39265;BME280;42646;51.910;7.724;2024-01-07T01:26:50;101090.94;;;1.46;100.00
39265;BME280;42646;51.910;7.724;2024-01-07T01:29:18;101082.13;;;1.47;100.00
39265;BME280;42646;51.910;7.724;2024-01-07T01:31:47;101093.47;;;1.47;100.00
39265;BME280;42646;51.910;7.724;2024-01-07T01:34:15;101100.56;;;1.45;100.00
39265;BME280;42646;51.910;7.724;2024-01-07T01:36:42;101110.06;;;1.48;100.00
39265;BME280;42646;51.910;7.724;2024-01-07T01:39:10;101110.84;;;1.50;100.00
39265;BME280;42646;51.910;7.724;2024-01-07T01:41:38;101106.56;;;1.47;100.00
39265;BME280;42646;51.910;7.724;2024-01-07T01:44:06;101108.06;;;1.53;100.00
39265;BME280;42646;51.910;7.724;2024-01-07T01:46:33;101111.06;;;1.45;100.00
39265;BME280;42646;51.910;7.724;2024-01-07T01:49:03;101113.94;;;1.39;100.00
39265;BME280;42646;51.910;7.724;2024-01-07T01:51:31;101115.84;;;1.36;100.00
39265;BME280;42646;51.910;7.724;2024-01-07T01:53:59;101118.63;;;1.32;100.00
39265;BME280;42646;51.910;7.724;2024-01-07T01:56:27;101128.25;;;1.32;100.00
39265;BME280;42646;51.910;7.724;2024-01-07T01:58:55;101116.13;;;1.29;100.00
39265;BME280;42646;51.910;7.724;2024-01-07T02:01:23;101130.81;;;1.33;100.00
39265;BME280;42646;51.910;7.724;2024-01-07T02:03:52;101131.06;;;1.27;100.00
39265;BME280;42646;51.910;7.724;2024-01-07T02:06:22;101128.44;;;1.27;100.00
39265;BME280;42646;51.910;7.724;2024-01-07T02:08:50;101125.91;;;1.26;100.00
39265;BME280;42646;51.910;7.724;2024-01-07T02:11:19;101140.81;;;1.24;100.00
39265;BME280;42646;51.910;7.724;2024-01-07T02:13:48;101141.09;;;1.18;100.00
39265;BME280;42646;51.910;7.724;2024-01-07T02:16:16;101139.31;;;1.18;100.00
39265;BME280;42646;51.910;7.724;2024-01-07T02:18:45;101146.59;;;1.12;100.00
39265;BME280;42646;51.910;7.724;2024-01-07T02:21:13;101157.81;;;1.15;100.00
39265;BME280;42646;51.910;7.724;2024-01-07T02:23:42;101157.88;;;1.14;100.00
39265;BME280;42646;51.910;7.724;2024-01-07T02:26:11;101155.31;;;1.12;100.00
39265;BME280;42646;51.910;7.724;2024-01-07T02:28:39;101163.97;;;1.14;100.00
39265;BME280;42646;51.910;7.724;2024-01-07T02:31:06;101164.00;;;1.13;100.00
39265;BME280;42646;51.910;7.724;2024-01-07T02:33:34;101166.53;;;1.16;100.00
39265;BME280;42646;51.910;7.724;2024-01-07T02:36:02;101170.13;;;1.13;100.00
39265;BME280;42646;51.910;7.724;2024-01-07T02:38:30;101163.25;;;1.11;100.00
39265;BME280;42646;51.910;7.724;2024-01-07T02:40:58;101165.78;;;1.12;100.00
39265;BME280;42646;51.910;7.724;2024-01-07T02:43:27;101166.63;;;1.13;100.00
39265;BME280;42646;51.910;7.724;2024-01-07T02:45:54;101170.91;;;1.15;100.00
39265;BME280;42646;51.910;7.724;2024-01-07T02:48:22;101169.25;;;1.13;100.00
39265;BME280;42646;51.910;7.724;2024-01-07T02:50:51;101178.13;;;1.10;100.00
39265;BME280;42646;51.910;7.724;2024-01-07T02:53:19;101178.13;;;1.10;100.00
39265;BME280;42646;51.910;7.724;2024-01-07T02:55:46;101183.50;;;1.07;100.00
39265;BME280;42646;51.910;7.724;2024-01-07T02:58:14;101182.63;;;1.06;100.00
39265;BME280;42646;51.910;7.724;2024-01-07T03:00:43;101187.81;;;1.08;100.00
39265;BME280;42646;51.910;7.724;2024-01-07T03:03:11;101190.47;;;1.06;100.00
39265;BME280;42646;51.910;7.724;2024-01-07T03:05:38;101194.81;;;1.08;100.00
39265;BME280;42646;51.910;7.724;2024-01-07T03:08:06;101197.31;;;1.11;100.00
39265;BME280;42646;51.910;7.724;2024-01-07T03:10:34;101194.69;;;1.11;100.00
39265;BME280;42646;51.910;7.724;2024-01-07T03:13:03;101198.22;;;1.10;100.00
39265;BME280;42646;51.910;7.724;2024-01-07T03:15:30;101200.91;;;1.08;100.00
39265;BME280;42646;51.910;7.724;2024-01-07T03:17:59;101200.84;;;1.10;100.00
39265;BME280;42646;51.910;7.724;2024-01-07T03:20:27;101200.00;;;1.09;100.00
39265;BME280;42646;51.910;7.724;2024-01-07T03:22:55;101195.72;;;1.06;100.00
39265;BME280;42646;51.910;7.724;2024-01-07T03:25:22;101204.47;;;1.07;100.00
39265;BME280;42646;51.910;7.724;2024-01-07T03:27:50;101207.25;;;1.02;100.00
39265;BME280;42646;51.910;7.724;2024-01-07T03:30:18;101210.72;;;1.03;100.00
39265;BME280;42646;51.910;7.724;2024-01-07T03:32:45;101212.50;;;1.02;100.00
39265;BME280;42646;51.910;7.724;2024-01-07T03:35:14;101221.22;;;1.03;100.00
39265;BME280;42646;51.910;7.724;2024-01-07T03:37:42;101213.28;;;1.04;100.00
39265;BME280;42646;51.910;7.724;2024-01-07T03:40:10;101214.38;;;0.99;100.00
39265;BME280;42646;51.910;7.724;2024-01-07T03:42:38;101215.31;;;0.98;100.00
39265;BME280;42646;51.910;7.724;2024-01-07T03:45:07;101219.69;;;0.97;100.00
39265;BME280;42646;51.910;7.724;2024-01-07T03:47:34;101224.75;;;1.02;100.00
39265;BME280;42646;51.910;7.724;2024-01-07T03:50:02;101222.00;;;1.05;100.00
39265;BME280;42646;51.910;7.724;2024-01-07T03:52:31;101225.47;;;1.05;100.00
39265;BME280;42646;51.910;7.724;2024-01-07T03:54:59;101228.94;;;1.06;100.00
39265;BME280;42646;51.910;7.724;2024-01-07T03:57:27;101229.78;;;1.06;100.00
39265;BME280;42646;51.910;7.724;2024-01-07T03:59:55;101228.03;;;1.07;100.00
39265;BME280;42646;51.910;7.724;2024-01-07T04:02:22;101239.22;;;1.11;100.00
39265;BME280;42646;51.910;7.724;2024-01-07T04:04:50;101241.06;;;1.09;100.00
39265;BME280;42646;51.910;7.724;2024-01-07T04:07:17;101242.75;;;1.10;100.00
39265;BME280;42646;51.910;7.724;2024-01-07T04:09:46;101243.63;;;1.10;100.00
39265;BME280;42646;51.910;7.724;2024-01-07T04:12:14;101255.94;;;1.08;100.00
39265;BME280;42646;51.910;7.724;2024-01-07T04:14:42;101255.94;;;1.08;100.00
39265;BME280;42646;51.910;7.724;2024-01-07T04:17:10;101251.81;;;1.02;100.00
39265;BME280;42646;51.910;7.724;2024-01-07T04:19:38;101256.03;;;1.05;100.00
39265;BME280;42646;51.910;7.724;2024-01-07T04:22:05;101257.75;;;1.06;100.00
39265;BME280;42646;51.910;7.724;2024-01-07T04:24:33;101257.50;;;1.12;100.00
39265;BME280;42646;51.910;7.724;2024-01-07T04:27:02;101262.13;;;1.05;100.00
39265;BME280;42646;51.910;7.724;2024-01-07T04:29:30;101262.09;;;1.07;100.00
39265;BME280;42646;51.910;7.724;2024-01-07T04:31:58;101268.31;;;1.04;100.00
39265;BME280;42646;51.910;7.724;2024-01-07T04:34:26;101272.63;;;1.05;100.00
39265;BME280;42646;51.910;7.724;2024-01-07T04:36:53;101272.09;;;0.97;100.00
39265;BME280;42646;51.910;7.724;2024-01-07T04:39:21;101274.72;;;0.97;100.00
39265;BME280;42646;51.910;7.724;2024-01-07T04:41:49;101277.56;;;0.91;100.00
39265;BME280;42646;51.910;7.724;2024-01-07T04:44:18;101284.44;;;0.94;100.00
39265;BME280;42646;51.910;7.724;2024-01-07T04:46:47;101286.22;;;0.93;100.00
39265;BME280;42646;51.910;7.724;2024-01-07T04:49:15;101286.16;;;0.95;100.00
39265;BME280;42646;51.910;7.724;2024-01-07T04:51:42;101287.28;;;0.89;100.00
39265;BME280;42646;51.910;7.724;2024-01-07T04:54:10;101290.91;;;0.85;100.00
39265;BME280;42646;51.910;7.724;2024-01-07T04:56:38;101291.75;;;0.86;100.00
39265;BME280;42646;51.910;7.724;2024-01-07T04:59:05;101293.41;;;0.88;100.00
39265;BME280;42646;51.910;7.724;2024-01-07T05:01:34;101291.75;;;0.86;100.00
39265;BME280;42646;51.910;7.724;2024-01-07T05:04:02;101292.69;;;0.85;100.00
39265;BME280;42646;51.910;7.724;2024-01-07T05:06:30;101303.09;;;0.86;100.00
39265;BME280;42646;51.910;7.724;2024-01-07T05:08:58;101303.03;;;0.88;100.00
39265;BME280;42646;51.910;7.724;2024-01-07T05:11:25;101294.47;;;0.84;100.00
39265;BME280;42646;51.910;7.724;2024-01-07T05:13:53;101305.88;;;0.82;100.00
39265;BME280;42646;51.910;7.724;2024-01-07T05:16:21;101307.66;;;0.81;100.00
39265;BME280;42646;51.910;7.724;2024-01-07T05:18:50;101305.78;;;0.85;100.00
39265;BME280;42646;51.910;7.724;2024-01-07T05:21:18;101309.25;;;0.85;100.00
39265;BME280;42646;51.910;7.724;2024-01-07T05:23:46;101308.41;;;0.85;100.00
39265;BME280;42646;51.910;7.724;2024-01-07T05:26:13;101317.22;;;0.82;100.00
39265;BME280;42646;51.910;7.724;2024-01-07T05:28:41;101316.31;;;0.83;100.00
39265;BME280;42646;51.910;7.724;2024-01-07T05:31:14;101334.69;;;0.82;100.00
39265;BME280;42646;51.910;7.724;2024-01-07T05:33:42;101329.47;;;0.82;100.00
39265;BME280;42646;51.910;7.724;2024-01-07T05:36:11;101340.84;;;0.80;100.00
39265;BME280;42646;51.910;7.724;2024-01-07T05:38:41;101345.25;;;0.80;100.00
39265;BME280;42646;51.910;7.724;2024-01-07T05:41:08;101342.72;;;0.77;100.00
39265;BME280;42646;51.910;7.724;2024-01-07T05:43:36;101352.41;;;0.75;100.00
39265;BME280;42646;51.910;7.724;2024-01-07T05:46:04;101357.78;;;0.72;100.00
39265;BME280;42646;51.910;7.724;2024-01-07T05:48:41;101365.66;;;0.70;100.00
39265;BME280;42646;51.910;7.724;2024-01-07T05:51:10;101369.03;;;0.74;100.00
39265;BME280;42646;51.910;7.724;2024-01-07T05:53:38;101370.03;;;0.71;100.00
39265;BME280;42646;51.910;7.724;2024-01-07T05:56:06;101371.75;;;0.71;100.00
39265;BME280;42646;51.910;7.724;2024-01-07T05:58:33;101371.75;;;0.71;100.00
39265;BME280;42646;51.910;7.724;2024-01-07T06:01:01;101379.50;;;0.74;100.00
39265;BME280;42646;51.910;7.724;2024-01-07T06:03:29;101384.84;;;0.71;100.00
39265;BME280;42646;51.910;7.724;2024-01-07T06:05:57;101389.38;;;0.67;100.00
39265;BME280;42646;51.910;7.724;2024-01-07T06:08:26;101392.09;;;0.64;100.00
39265;BME280;42646;51.910;7.724;2024-01-07T06:10:54;101399.16;;;0.62;100.00
39265;BME280;42646;51.910;7.724;2024-01-07T06:13:21;101397.53;;;0.60;100.00
39265;BME280;42646;51.910;7.724;2024-01-07T06:15:49;101402.63;;;0.63;100.00
39265;BME280;42646;51.910;7.724;2024-01-07T06:18:17;101394.91;;;0.60;100.00
39265;BME280;42646;51.910;7.724;2024-01-07T06:20:45;101412.34;;;0.59;100.00
39265;BME280;42646;51.910;7.724;2024-01-07T06:23:12;101403.59;;;0.60;100.00
39265;BME280;42646;51.910;7.724;2024-01-07T06:25:41;101415.78;;;0.61;100.00
39265;BME280;42646;51.910;7.724;2024-01-07T06:28:09;101418.47;;;0.60;100.00
39265;BME280;42646;51.910;7.724;2024-01-07T06:30:37;101421.09;;;0.60;100.00
39265;BME280;42646;51.910;7.724;2024-01-07T06:33:05;101421.97;;;0.59;100.00
39265;BME280;42646;51.910;7.724;2024-01-07T06:35:33;101427.41;;;0.54;100.00
39265;BME280;42646;51.910;7.724;2024-01-07T06:38:01;101436.09;;;0.55;100.00
39265;BME280;42646;51.910;7.724;2024-01-07T06:40:28;101443.31;;;0.48;100.00
39265;BME280;42646;51.910;7.724;2024-01-07T06:42:57;101443.03;;;0.56;100.00
39265;BME280;42646;51.910;7.724;2024-01-07T06:45:25;101444.97;;;0.50;100.00
39265;BME280;42646;51.910;7.724;2024-01-07T06:47:52;101457.13;;;0.51;100.00
39265;BME280;42646;51.910;7.724;2024-01-07T06:50:21;101453.59;;;0.52;100.00
39265;BME280;42646;51.910;7.724;2024-01-07T06:52:49;101458.09;;;0.49;100.00
39265;BME280;42646;51.910;7.724;2024-01-07T06:55:16;101466.81;;;0.49;100.00
39265;BME280;42646;51.910;7.724;2024-01-07T06:57:44;101466.81;;;0.49;100.00
39265;BME280;42646;51.910;7.724;2024-01-07T07:00:14;101472.84;;;0.51;100.00
39265;BME280;42646;51.910;7.724;2024-01-07T07:02:42;101480.69;;;0.51;100.00
39265;BME280;42646;51.910;7.724;2024-01-07T07:05:10;101480.75;;;0.50;100.00
39265;BME280;42646;51.910;7.724;2024-01-07T07:07:37;101484.28;;;0.49;100.00
39265;BME280;42646;51.910;7.724;2024-01-07T07:10:05;101488.69;;;0.47;100.00
39265;BME280;42646;51.910;7.724;2024-01-07T07:12:33;101500.69;;;0.54;100.00
39265;BME280;42646;51.910;7.724;2024-01-07T07:15:01;101505.94;;;0.54;100.00
39265;BME280;42646;51.910;7.724;2024-01-07T07:17:30;101509.41;;;0.55;100.00
39265;BME280;42646;51.910;7.724;2024-01-07T07:19:57;101508.34;;;0.59;100.00
39265;BME280;42646;51.910;7.724;2024-01-07T07:22:25;101513.78;;;0.54;100.00
39265;BME280;42646;51.910;7.724;2024-01-07T07:24:53;101516.75;;;0.43;100.00
39265;BME280;42646;51.910;7.724;2024-01-07T07:27:24;101523.75;;;0.43;100.00
39265;BME280;42646;51.910;7.724;2024-01-07T07:29:52;101527.13;;;0.46;100.00
39265;BME280;42646;51.910;7.724;2024-01-07T07:32:19;101535.16;;;0.42;100.00
39265;BME280;42646;51.910;7.724;2024-01-07T07:34:48;101544.91;;;0.37;100.00
39265;BME280;42646;51.910;7.724;2024-01-07T07:37:16;101549.31;;;0.35;100.00
39265;BME280;42646;51.910;7.724;2024-01-07T07:39:47;101553.56;;;0.39;100.00
39265;BME280;42646;51.910;7.724;2024-01-07T07:42:16;101558.03;;;0.35;100.00
39265;BME280;42646;51.910;7.724;2024-01-07T07:44:43;101566.94;;;0.30;100.00
39265;BME280;42646;51.910;7.724;2024-01-07T07:47:11;101575.69;;;0.29;100.00
39265;BME280;42646;51.910;7.724;2024-01-07T07:49:38;101587.19;;;0.24;100.00
39265;BME280;42646;51.910;7.724;2024-01-07T07:52:08;101584.56;;;0.24;100.00
39265;BME280;42646;51.910;7.724;2024-01-07T07:54:37;101593.41;;;0.20;100.00
39265;BME280;42646;51.910;7.724;2024-01-07T07:57:05;101602.06;;;0.22;100.00
39265;BME280;42646;51.910;7.724;2024-01-07T07:59:32;101602.06;;;0.22;100.00
39265;BME280;42646;51.910;7.724;2024-01-07T08:02:00;101601.91;;;0.27;100.00
39265;BME280;42646;51.910;7.724;2024-01-07T08:04:28;101608.25;;;0.20;100.00
39265;BME280;42646;51.910;7.724;2024-01-07T08:06:56;101611.78;;;0.19;100.00
39265;BME280;42646;51.910;7.724;2024-01-07T08:09:25;101608.31;;;0.18;100.00
39265;BME280;42646;51.910;7.724;2024-01-07T08:11:52;101620.38;;;0.22;100.00
39265;BME280;42646;51.910;7.724;2024-01-07T08:14:20;101618.78;;;0.18;100.00
39265;BME280;42646;51.910;7.724;2024-01-07T08:16:47;101617.03;;;0.17;100.00
39265;BME280;42646;51.910;7.724;2024-01-07T08:19:15;101620.56;;;0.16;100.00
39265;BME280;42646;51.910;7.724;2024-01-07T08:21:43;101626.63;;;0.18;100.00
39265;BME280;42646;51.910;7.724;2024-01-07T08:24:11;101623.84;;;0.23;100.00
39265;BME280;42646;51.910;7.724;2024-01-07T08:26:40;101624.63;;;0.26;100.00
39265;BME280;42646;51.910;7.724;2024-01-07T08:29:07;101630.13;;;0.17;99.91
39265;BME280;42646;51.910;7.724;2024-01-07T08:31:35;101630.09;;;0.19;99.21
39265;BME280;42646;51.910;7.724;2024-01-07T08:34:03;101635.56;;;0.11;99.54
39265;BME280;42646;51.910;7.724;2024-01-07T08:36:31;101635.56;;;0.11;99.37
39265;BME280;42646;51.910;7.724;2024-01-07T08:38:58;101637.28;;;0.12;99.46
39265;BME280;42646;51.910;7.724;2024-01-07T08:41:26;101647.59;;;0.17;98.90
39265;BME280;42646;51.910;7.724;2024-01-07T08:43:55;101659.88;;;0.15;99.09
39265;BME280;42646;51.910;7.724;2024-01-07T08:46:23;101652.03;;;0.15;98.75
39265;BME280;42646;51.910;7.724;2024-01-07T08:48:51;101658.06;;;0.17;99.11
39265;BME280;42646;51.910;7.724;2024-01-07T08:51:18;101663.34;;;0.15;99.05
39265;BME280;42646;51.910;7.724;2024-01-07T08:53:46;101664.25;;;0.14;99.01
39265;BME280;42646;51.910;7.724;2024-01-07T08:56:14;101676.28;;;0.20;98.18
39265;BME280;42646;51.910;7.724;2024-01-07T08:58:41;101670.28;;;0.16;97.79
39265;BME280;42646;51.910;7.724;2024-01-07T09:01:10;101673.81;;;0.15;97.39
39265;BME280;42646;51.910;7.724;2024-01-07T09:03:40;101682.66;;;0.11;97.26
39265;BME280;42646;51.910;7.724;2024-01-07T09:06:08;101687.66;;;0.19;97.37
39265;BME280;42646;51.910;7.724;2024-01-07T09:08:36;101692.19;;;0.14;96.38
39265;BME280;42646;51.910;7.724;2024-01-07T09:11:04;101701.81;;;0.12;96.49
39265;BME280;42646;51.910;7.724;2024-01-07T09:13:33;101706.84;;;0.19;95.26
39265;BME280;42646;51.910;7.724;2024-01-07T09:16:00;101708.72;;;0.14;94.23
39265;BME280;42646;51.910;7.724;2024-01-07T09:18:29;101708.91;;;0.08;94.27
39265;BME280;42646;51.910;7.724;2024-01-07T09:20:58;101715.97;;;0.05;94.34
39265;BME280;42646;51.910;7.724;2024-01-07T09:23:25;101710.72;;;0.06;94.36
39265;BME280;42646;51.910;7.724;2024-01-07T09:25:53;101719.44;;;0.05;94.31
39265;BME280;42646;51.910;7.724;2024-01-07T09:28:21;101721.19;;;0.06;94.24
39265;BME280;42646;51.910;7.724;2024-01-07T09:30:48;101728.22;;;0.04;94.25
39265;BME280;42646;51.910;7.724;2024-01-07T09:33:16;101735.16;;;0.05;94.28
39265;BME280;42646;51.910;7.724;2024-01-07T09:35:45;101735.16;;;0.05;94.40
39265;BME280;42646;51.910;7.724;2024-01-07T09:38:13;101743.84;;;0.06;94.08
39265;BME280;42646;51.910;7.724;2024-01-07T09:40:42;101742.94;;;0.08;93.67
39265;BME280;42646;51.910;7.724;2024-01-07T09:43:10;101745.44;;;0.11;92.04
39265;BME280;42646;51.910;7.724;2024-01-07T09:45:39;101747.38;;;0.05;92.05
39265;BME280;42646;51.910;7.724;2024-01-07T09:48:09;101753.63;;;0.01;92.55
39265;BME280;42646;51.910;7.724;2024-01-07T09:50:37;101751.00;;;0.01;92.76
39265;BME280;42646;51.910;7.724;2024-01-07T09:53:07;101761.41;;;0.02;92.36
39265;BME280;42646;51.910;7.724;2024-01-07T09:55:40;101760.38;;;0.08;91.92
39265;BME280;42646;51.910;7.724;2024-01-07T09:58:14;101761.47;;;0.01;90.71
39265;BME280;42646;51.910;7.724;2024-01-07T10:00:42;101762.44;;;-0.04;90.88
39265;BME280;42646;51.910;7.724;2024-01-07T10:03:10;101770.16;;;0.01;90.23
39265;BME280;42646;51.910;7.724;2024-01-07T10:05:38;101768.59;;;-0.06;90.97
39265;BME280;42646;51.910;7.724;2024-01-07T10:08:07;101773.81;;;-0.05;90.81
39265;BME280;42646;51.910;7.724;2024-01-07T10:10:35;101776.31;;;0.00;91.37
39265;BME280;42646;51.910;7.724;2024-01-07T10:13:03;101774.38;;;0.07;90.68
39265;BME280;42646;51.910;7.724;2024-01-07T10:15:31;101784.97;;;0.02;90.04
39265;BME280;42646;51.910;7.724;2024-01-07T10:18:03;101785.03;;;-0.01;90.11
39265;BME280;42646;51.910;7.724;2024-01-07T10:20:32;101780.63;;;0.01;90.09
39265;BME280;42646;51.910;7.724;2024-01-07T10:23:02;101783.97;;;0.06;90.01
39265;BME280;42646;51.910;7.724;2024-01-07T10:25:31;101780.56;;;0.03;90.06
39265;BME280;42646;51.910;7.724;2024-01-07T10:27:59;101780.34;;;0.10;89.55
39265;BME280;42646;51.910;7.724;2024-01-07T10:30:28;101776.88;;;0.10;89.36
39265;BME280;42646;51.910;7.724;2024-01-07T10:32:57;101787.91;;;0.21;86.48
39265;BME280;42646;51.910;7.724;2024-01-07T10:35:33;101790.00;;;0.08;86.44
39265;BME280;42646;51.910;7.724;2024-01-07T10:38:01;101792.75;;;0.04;86.53
39265;BME280;42646;51.910;7.724;2024-01-07T10:40:31;101788.50;;;-0.01;86.44
39265;BME280;42646;51.910;7.724;2024-01-07T10:43:01;101787.44;;;0.07;86.68
39265;BME280;42646;51.910;7.724;2024-01-07T10:45:29;101790.13;;;0.04;85.75
39265;BME280;42646;51.910;7.724;2024-01-07T10:47:59;101784.06;;;0.03;84.99
39265;BME280;42646;51.910;7.724;2024-01-07T10:50:32;101785.88;;;-0.01;85.32
39265;BME280;42646;51.910;7.724;2024-01-07T10:53:03;101786.88;;;-0.05;85.89
39265;BME280;42646;51.910;7.724;2024-01-07T10:55:34;101786.78;;;-0.02;85.94
39265;BME280;42646;51.910;7.724;2024-01-07T10:58:04;101791.09;;;0.01;85.43
39265;BME280;42646;51.910;7.724;2024-01-07T11:00:32;101790.94;;;0.06;83.89
39265;BME280;42646;51.910;7.724;2024-01-07T11:03:06;101790.31;;;-0.03;83.80
39265;BME280;42646;51.910;7.724;2024-01-07T11:05:42;101798.25;;;-0.06;83.75
39265;BME280;42646;51.910;7.724;2024-01-07T11:08:18;101797.25;;;-0.02;83.76
39265;BME280;42646;51.910;7.724;2024-01-07T11:10:50;101801.38;;;0.07;82.15
39265;BME280;42646;51.910;7.724;2024-01-07T11:13:32;101803.31;;;0.01;81.97
39265;BME280;42646;51.910;7.724;2024-01-07T11:16:02;101805.84;;;0.04;81.18
39265;BME280;42646;51.910;7.724;2024-01-07T11:18:31;101809.56;;;-0.05;81.36
39265;BME280;42646;51.910;7.724;2024-01-07T11:21:01;101810.44;;;-0.05;82.52
39265;BME280;42646;51.910;7.724;2024-01-07T11:23:30;101814.31;;;0.12;81.71
39265;BME280;42646;51.910;7.724;2024-01-07T11:26:00;101812.78;;;0.05;82.11
39265;BME280;42646;51.910;7.724;2024-01-07T11:28:49;101816.19;;;0.08;79.51
39265;BME280;42646;51.910;7.724;2024-01-07T11:31:18;101816.06;;;0.13;79.85
39265;BME280;42646;51.910;7.724;2024-01-07T11:33:47;101824.94;;;0.07;79.59
39265;BME280;42646;51.910;7.724;2024-01-07T11:36:16;101818.09;;;0.02;80.04
39265;BME280;42646;51.910;7.724;2024-01-07T11:38:45;101811.91;;;0.04;80.48
39265;BME280;42646;51.910;7.724;2024-01-07T11:41:19;101817.09;;;0.07;80.42
39265;BME280;42646;51.910;7.724;2024-01-07T11:43:54;101820.63;;;0.05;81.03
39265;BME280;42646;51.910;7.724;2024-01-07T11:46:26;101823.06;;;0.12;80.34
39265;BME280;42646;51.910;7.724;2024-01-07T11:48:55;101828.22;;;0.14;80.44
39265;BME280;42646;51.910;7.724;2024-01-07T11:51:25;101822.16;;;0.12;80.73
39265;BME280;42646;51.910;7.724;2024-01-07T11:53:54;101818.63;;;0.14;81.42
39265;BME280;42646;51.910;7.724;2024-01-07T11:56:24;101818.69;;;0.11;81.43
39265;BME280;42646;51.910;7.724;2024-01-07T11:58:51;101813.38;;;0.14;81.22
39265;BME280;42646;51.910;7.724;2024-01-07T12:01:19;101821.06;;;0.20;80.65
39265;BME280;42646;51.910;7.724;2024-01-07T12:03:47;101825.50;;;0.18;79.78
39265;BME280;42646;51.910;7.724;2024-01-07T12:06:16;101816.81;;;0.16;80.05
39265;BME280;42646;51.910;7.724;2024-01-07T12:08:44;101816.69;;;0.21;80.09
39265;BME280;42646;51.910;7.724;2024-01-07T12:11:13;101819.94;;;0.29;78.92
39265;BME280;42646;51.910;7.724;2024-01-07T12:13:42;101823.69;;;0.20;79.54
39265;BME280;42646;51.910;7.724;2024-01-07T12:16:11;101828.09;;;0.18;80.04
39265;BME280;42646;51.910;7.724;2024-01-07T12:18:39;101839.31;;;0.22;80.23
39265;BME280;42646;51.910;7.724;2024-01-07T12:21:07;101837.53;;;0.24;80.28
39265;BME280;42646;51.910;7.724;2024-01-07T12:23:35;101827.03;;;0.25;80.61
39265;BME280;42646;51.910;7.724;2024-01-07T12:26:08;101834.03;;;0.23;80.89
39265;BME280;42646;51.910;7.724;2024-01-07T12:28:36;101835.00;;;0.21;81.65
39265;BME280;42646;51.910;7.724;2024-01-07T12:31:06;101827.81;;;0.28;82.04
39265;BME280;42646;51.910;7.724;2024-01-07T12:33:36;101827.75;;;0.31;82.05
39265;BME280;42646;51.910;7.724;2024-01-07T12:36:06;101842.19;;;0.44;81.00
39265;BME280;42646;51.910;7.724;2024-01-07T12:38:36;101835.38;;;0.38;80.93
39265;BME280;42646;51.910;7.724;2024-01-07T12:41:04;101843.22;;;0.38;80.35
39265;BME280;42646;51.910;7.724;2024-01-07T12:43:32;101831.31;;;0.28;80.85
39265;BME280;42646;51.910;7.724;2024-01-07T12:46:00;101835.69;;;0.28;81.52
39265;BME280;42646;51.910;7.724;2024-01-07T12:48:33;101846.16;;;0.28;82.32
39265;BME280;42646;51.910;7.724;2024-01-07T12:51:01;101856.63;;;0.28;82.72
39265;BME280;42646;51.910;7.724;2024-01-07T12:53:29;101851.34;;;0.29;83.04
39265;BME280;42646;51.910;7.724;2024-01-07T12:55:56;101855.34;;;0.41;82.71
39265;BME280;42646;51.910;7.724;2024-01-07T12:58:24;101846.75;;;0.37;80.88